Time;durP1;ratioP1;P1;durP2;ratioP2;P2;SDS_P1;SDS_P2;PMS_P1;PMS_P2;Temp;Humidity;BMP_temperature;BMP_pressure;BME280_temperature;BME280_humidity;BME280_pressure;Samples;Min_cycle;Max_cycle;Signal;HPM_P1;HPM_P2
2022/06/12 00:00:09;;;;;;;16.33;6.00;;;16.90;99.90;;;;;;5091612;28;20024;-63
2022/06/12 00:02:35;;;;;;;13.60;6.00;;;16.80;99.90;;;;;;5089680;28;20020;-62
2022/06/12 00:05:01;;;;;;;16.48;5.97;;;16.80;99.90;;;;;;5089568;28;20022;-63
2022/06/12 00:07:27;;;;;;;16.45;5.85;;;16.70;99.90;;;;;;5099103;28;20050;-62
2022/06/12 00:09:52;;;;;;;17.23;6.07;;;16.70;99.90;;;;;;5087195;28;20511;-62
2022/06/12 00:12:18;;;;;;;12.60;5.55;;;16.70;99.90;;;;;;5087974;28;20396;-62
2022/06/12 00:14:43;;;;;;;13.07;5.60;;;16.60;99.90;;;;;;5089485;28;20084;-62
2022/06/12 00:17:09;;;;;;;16.73;6.50;;;16.60;99.90;;;;;;5091069;28;20978;-61
2022/06/12 00:19:35;;;;;;;13.02;5.80;;;16.60;99.90;;;;;;5090728;28;20029;-62
2022/06/12 00:22:01;;;;;;;15.95;6.68;;;16.20;99.90;;;;;;5089380;28;20533;-61
2022/06/12 00:24:28;;;;;;;14.75;6.40;;;;;;;;;;5092760;28;20020;-62
2022/06/12 00:26:55;;;;;;;15.07;6.22;;;;;;;;;;5092910;28;20024;-62
2022/06/12 00:29:27;;;;;;;14.88;6.50;;;;;;;;;;5090375;28;20052;-62
2022/06/12 00:32:01;;;;;;;15.65;6.18;;;16.20;99.90;;;;;;5091048;28;20415;-62
2022/06/12 00:34:31;;;;;;;12.10;5.43;;;16.30;99.90;;;;;;5088959;28;20333;-62
2022/06/12 00:36:57;;;;;;;15.20;6.07;;;;;;;;;;5086408;28;20043;-62
2022/06/12 00:39:23;;;;;;;14.88;6.10;;;16.10;99.90;;;;;;5091676;28;20551;-62
2022/06/12 00:41:51;;;;;;;11.10;5.93;;;16.20;99.90;;;;;;5088466;28;20027;-62
2022/06/12 00:44:22;;;;;;;15.57;6.43;;;16.20;99.90;;;;;;5088180;28;20091;-62
2022/06/12 00:46:57;;;;;;;13.13;5.75;;;16.10;99.90;;;;;;5092327;28;20093;-62
2022/06/12 00:49:31;;;;;;;13.93;6.13;;;16.10;99.90;;;;;;5091469;28;20039;-62
2022/06/12 00:52:10;;;;;;;15.40;6.40;;;16.00;99.90;;;;;;5086644;28;20047;-62
2022/06/12 00:54:38;;;;;;;15.68;6.35;;;16.00;99.90;;;;;;5093272;28;20016;-62
2022/06/12 00:57:06;;;;;;;18.25;6.75;;;16.00;99.90;;;;;;5090327;28;20073;-62
2022/06/12 00:59:36;;;;;;;13.07;5.93;;;;;;;;;;5090072;28;20028;-62
2022/06/12 01:02:04;;;;;;;14.25;6.07;;;15.60;99.90;;;;;;5087888;28;20023;-62
2022/06/12 01:07:24;;;;;;;15.77;6.00;;;15.80;99.90;;;;;;5088823;28;20023;-62
2022/06/12 01:09:53;;;;;;;14.65;6.63;;;15.50;99.90;;;;;;5087792;28;20027;-62
2022/06/12 01:12:22;;;;;;;14.85;6.22;;;;;;;;;;5089675;28;20056;-63
2022/06/12 01:14:54;;;;;;;19.00;7.85;;;;;;;;;;5085302;28;20097;-63
2022/06/12 01:17:22;;;;;;;13.40;6.18;;;;;;;;;;5091178;28;20028;-62
2022/06/12 01:19:58;;;;;;;15.70;7.25;;;;;;;;;;5086302;28;20086;-61
2022/06/12 01:22:34;;;;;;;12.90;6.40;;;;;;;;;;5088287;28;20328;-62
2022/06/12 01:25:21;;;;;;;14.93;6.95;;;;;;;;;;5091159;28;20027;-61
2022/06/12 01:27:47;;;;;;;13.10;7.68;;;;;;;;;;5082714;28;20486;-62
2022/06/12 01:30:29;;;;;;;14.02;7.40;;;;;;;;;;5087144;28;20024;-62
2022/06/12 01:33:04;;;;;;;15.85;8.13;;;;;;;;;;5089037;28;20055;-62
2022/06/12 01:35:31;;;;;;;15.48;7.60;;;;;;;;;;5092499;28;20493;-62
2022/06/12 01:37:57;;;;;;;19.23;7.95;;;;;;;;;;5088466;28;20056;-63
2022/06/12 01:40:30;;;;;;;14.40;7.78;;;;;;;;;;5091433;28;20491;-62
2022/06/12 01:42:56;;;;;;;18.07;7.67;;;;;;;;;;5093198;28;20020;-61
2022/06/12 01:45:27;;;;;;;16.38;8.13;;;;;;;;;;5093583;28;20076;-62
2022/06/12 01:48:10;;;;;;;16.10;7.63;;;;;;;;;;5092195;28;20080;-62
2022/06/12 01:50:44;;;;;;;14.40;7.97;;;;;;;;;;5087461;28;20101;-62
2022/06/12 01:53:23;;;;;;;16.90;8.30;;;;;;;;;;5091718;28;20038;-61
2022/06/12 01:56:06;;;;;;;15.27;8.02;;;;;;;;;;5093014;28;20026;-61
2022/06/12 01:58:53;;;;;;;12.60;7.55;;;;;;;;;;5088634;28;20033;-62
2022/06/12 02:01:25;;;;;;;13.40;7.55;;;;;;;;;;5086737;28;20108;-62
2022/06/12 02:04:06;;;;;;;15.38;8.00;;;15.00;99.90;;;;;;5084293;28;20069;-61
2022/06/12 02:06:36;;;;;;;14.10;7.90;;;;;;;;;;5090676;28;20028;-60
2022/06/12 02:09:08;;;;;;;14.68;7.65;;;;;;;;;;5094627;28;20020;-62
2022/06/12 02:14:27;;;;;;;12.77;7.10;;;;;;;;;;5081084;28;20631;-61
2022/06/12 02:16:57;;;;;;;14.18;7.38;;;;;;;;;;5089368;28;20043;-61
2022/06/12 02:19:29;;;;;;;13.50;6.80;;;;;;;;;;5088473;28;20360;-61
2022/06/12 02:21:59;;;;;;;10.10;6.43;;;;;;;;;;5086419;28;20020;-61
2022/06/12 02:24:32;;;;;;;13.23;6.50;;;;;;;;;;5090906;28;20384;-61
2022/06/12 02:27:00;;;;;;;14.00;6.97;;;;;;;;;;5084082;28;20051;-61
2022/06/12 02:29:30;;;;;;;12.70;6.93;;;;;;;;;;5088789;28;20050;-62
2022/06/12 02:31:58;;;;;;;12.07;6.50;;;;;;;;;;5090556;28;20047;-61
2022/06/12 02:34:29;;;;;;;12.43;6.95;;;;;;;;;;5087140;27;20026;-62
2022/06/12 02:36:57;;;;;;;14.45;7.60;;;;;;;;;;5087785;28;20089;-62
2022/06/12 02:39:25;;;;;;;16.30;7.45;;;;;;;;;;5086299;28;20427;-62
2022/06/12 02:41:57;;;;;;;15.48;7.28;;;;;;;;;;5090161;28;20027;-62
2022/06/12 02:44:42;;;;;;;13.95;6.70;;;;;;;;;;5084871;28;20008;-62
2022/06/12 02:47:13;;;;;;;13.18;7.20;;;;;;;;;;5083993;28;20138;-62
2022/06/12 02:49:40;;;;;;;11.32;6.88;;;;;;;;;;5087358;28;20028;-61
2022/06/12 02:52:15;;;;;;;12.90;7.03;;;;;;;;;;5085827;28;20020;-62
2022/06/12 02:55:04;;;;;;;13.07;7.70;;;;;;;;;;5088521;28;20039;-61
2022/06/12 02:57:33;;;;;;;14.55;7.13;;;;;;;;;;5087522;28;20047;-62
2022/06/12 03:00:06;;;;;;;13.10;7.25;;;;;;;;;;5089014;28;20031;-61
2022/06/12 03:02:40;;;;;;;12.57;7.10;;;;;;;;;;5087625;28;20119;-62
2022/06/12 03:05:26;;;;;;;13.55;7.22;;;14.60;99.90;;;;;;5081542;28;20024;-61
2022/06/12 03:08:00;;;;;;;10.60;6.60;;;14.40;99.90;;;;;;5081341;28;20024;-62
2022/06/12 03:10:34;;;;;;;13.82;7.47;;;14.30;99.90;;;;;;5082301;28;20038;-61
2022/06/12 03:13:02;;;;;;;10.20;6.70;;;14.30;99.90;;;;;;5084301;28;20073;-61
2022/06/12 03:15:45;;;;;;;9.73;6.50;;;14.20;99.90;;;;;;5089424;28;20409;-60
2022/06/12 03:18:20;;;;;;;11.73;6.95;;;14.30;99.90;;;;;;5087378;28;20024;-60
2022/06/12 03:21:05;;;;;;;10.63;6.70;;;14.30;99.90;;;;;;5084184;28;20046;-60
2022/06/12 03:23:47;;;;;;;10.68;6.55;;;14.20;99.90;;;;;;5087367;28;20031;-61
2022/06/12 03:26:29;;;;;;;13.23;6.72;;;14.20;99.90;;;;;;5082728;28;20012;-62
2022/06/12 03:29:10;;;;;;;11.38;6.38;;;14.10;99.90;;;;;;5083034;28;20024;-61
2022/06/12 03:31:52;;;;;;;12.32;6.50;;;14.20;99.90;;;;;;5086979;28;20101;-61
2022/06/12 03:34:42;;;;;;;13.50;6.47;;;13.90;99.90;;;;;;5084152;28;20024;-62
2022/06/12 03:37:13;;;;;;;11.43;6.32;;;14.10;99.90;;;;;;5077813;28;20032;-62
2022/06/12 03:39:49;;;;;;;10.07;6.00;;;13.90;99.90;;;;;;5087422;28;20027;-61
2022/06/12 03:42:45;;;;;;;12.05;6.55;;;14.00;99.90;;;;;;5083701;28;20104;-61
2022/06/12 03:45:18;;;;;;;11.23;6.13;;;13.90;99.90;;;;;;5066037;28;20028;-61
2022/06/12 03:47:51;;;;;;;14.93;6.88;;;13.80;99.90;;;;;;5086323;28;20031;-61
2022/06/12 03:50:41;;;;;;;11.43;6.60;;;14.00;99.90;;;;;;5083047;28;20078;-61
2022/06/12 03:53:10;;;;;;;11.98;6.55;;;14.10;99.90;;;;;;5083831;28;20463;-62
2022/06/12 03:58:45;;;;;;;10.43;5.88;;;14.00;99.90;;;;;;5088554;28;20072;-62
2022/06/12 04:01:11;;;;;;;11.60;6.47;;;14.00;99.90;;;;;;5088057;28;20024;-61
2022/06/12 04:03:43;;;;;;;11.18;6.22;;;13.90;99.90;;;;;;5089641;28;20015;-61
2022/06/12 04:06:17;;;;;;;10.98;6.50;;;14.10;99.90;;;;;;5088945;28;20560;-61
2022/06/12 04:08:50;;;;;;;10.48;6.35;;;14.00;99.90;;;;;;5092195;28;20515;-62
2022/06/12 04:11:18;;;;;;;;;;;14.10;99.90;;;;;;5079836;28;20020;-60
2022/06/12 04:13:45;;;;;;;11.63;6.30;;;14.30;99.90;;;;;;5086818;28;19915;-62
2022/06/12 04:16:34;;;;;;;13.77;6.25;;;14.20;99.90;;;;;;5086180;28;20020;-61
2022/06/12 04:19:06;;;;;;;10.85;6.63;;;14.10;99.90;;;;;;5094001;28;20027;-62
2022/06/12 04:21:37;;;;;;;10.63;6.65;;;14.20;99.90;;;;;;5089083;28;20023;-62
2022/06/12 04:24:29;;;;;;;10.77;6.40;;;14.30;99.90;;;;;;5086844;28;20379;-61
2022/06/12 04:27:31;;;;;;;13.43;7.00;;;14.20;99.90;;;;;;5092904;28;20077;-61
2022/06/12 04:30:29;;;;;;;10.23;6.40;;;14.30;99.90;;;;;;5080929;28;20074;-59
2022/06/12 04:33:22;;;;;;;9.90;6.50;;;14.20;99.90;;;;;;5076060;28;20036;-62
2022/06/12 04:35:51;;;;;;;12.30;6.78;;;;;;;;;;5071136;28;20036;-62
2022/06/12 04:38:19;;;;;;;13.38;7.07;;;;;;;;;;5092258;28;20329;-63
2022/06/12 04:40:47;;;;;;;11.65;7.15;;;14.40;99.90;;;;;;5081202;27;20545;-62
2022/06/12 04:43:14;;;;;;;12.50;6.72;;;;;;;;;;5087946;28;20684;-63
2022/06/12 04:45:40;;;;;;;15.57;7.10;;;14.60;99.90;;;;;;5088371;28;20012;-63
2022/06/12 04:48:11;;;;;;;13.77;6.50;;;14.70;99.90;;;;;;5081192;28;20024;-63
2022/06/12 04:50:37;;;;;;;11.55;6.57;;;;;;;;;;5088815;28;20023;-63
2022/06/12 04:53:03;;;;;;;11.90;6.60;;;15.10;99.90;;;;;;5088152;28;20499;-63
2022/06/12 04:55:32;;;;;;;15.73;7.10;;;;;;;;;;5093512;28;20059;-62
2022/06/12 04:58:00;;;;;;;11.65;6.28;;;15.00;99.90;;;;;;5084672;28;20085;-63
2022/06/12 05:00:28;;;;;;;13.65;6.53;;;;;;;;;;5089139;28;20036;-64
2022/06/12 05:02:55;;;;;;;14.48;6.50;;;;;;;;;;5085933;28;20046;-62
2022/06/12 05:05:24;;;;;;;15.15;6.47;;;;;;;;;;5088529;28;20019;-61
2022/06/12 05:07:53;;;;;;;15.00;6.57;;;15.20;99.90;;;;;;5085516;28;20460;-63
2022/06/12 05:10:18;;;;;;;11.60;6.50;;;15.40;99.90;;;;;;5091416;28;20375;-63
2022/06/12 05:12:47;;;;;;;12.15;6.25;;;15.30;99.90;;;;;;5091462;28;20019;-63
2022/06/12 05:15:15;;;;;;;15.30;7.03;;;15.40;99.90;;;;;;5084778;28;20020;-63
2022/06/12 05:17:43;;;;;;;15.98;6.70;;;;;;;;;;5089612;28;20028;-64
2022/06/12 05:20:16;;;;;;;13.32;7.20;;;;;;;;;;5078396;28;20044;-64
2022/06/12 05:22:41;;;;;;;14.05;7.18;;;15.40;99.90;;;;;;5086471;28;20020;-63
2022/06/12 05:25:08;;;;;;;12.38;6.35;;;15.70;99.90;;;;;;5087261;28;20039;-62
2022/06/12 05:27:35;;;;;;;15.75;6.45;;;15.80;99.90;;;;;;5087826;28;20048;-64
2022/06/12 05:30:05;;;;;;;12.70;6.93;;;;;;;;;;5082236;28;20024;-64
2022/06/12 05:32:33;;;;;;;17.38;7.50;;;;;;;;;;5086699;28;20112;-63
2022/06/12 05:34:59;;;;;;;13.48;6.75;;;16.50;99.90;;;;;;5086109;28;20471;-61
2022/06/12 05:37:26;;;;;;;13.38;6.75;;;;;;;;;;5090403;28;20119;-61
2022/06/12 05:39:52;;;;;;;12.05;5.70;;;;;;;;;;5089627;28;20116;-60
2022/06/12 05:42:18;;;;;;;18.05;5.90;;;17.20;99.90;;;;;;5090815;28;20056;-62
2022/06/12 05:44:46;;;;;;;15.27;5.82;;;;;;;;;;5086165;28;20366;-61
2022/06/12 05:47:11;;;;;;;14.90;6.30;;;17.10;99.90;;;;;;5095398;28;20023;-64
2022/06/12 05:49:37;;;;;;;16.63;5.95;;;17.00;99.90;;;;;;5090726;28;20020;-61
2022/06/12 05:52:04;;;;;;;22.33;6.50;;;;;;;;;;5083691;28;20126;-64
2022/06/12 05:54:31;;;;;;;20.80;6.97;;;;;;;;;;5082785;28;20257;-63
2022/06/12 05:56:57;;;;;;;22.40;6.60;;;;;;;;;;5078936;28;20028;-62
2022/06/12 05:59:24;;;;;;;20.83;7.15;;;;;;;;;;5082173;28;20052;-63
2022/06/12 06:01:51;;;;;;;18.88;7.38;;;;;;;;;;5084604;28;20116;-59
2022/06/12 06:04:18;;;;;;;18.48;6.80;;;;;;;;;;5085645;28;20034;-61
2022/06/12 06:06:52;;;;;;;14.65;5.60;;;17.50;99.90;;;;;;5090335;28;20474;-63
2022/06/12 06:09:19;;;;;;;;;;;;;;;;;;5095789;28;20029;-62
2022/06/12 06:11:46;;;;;;;15.57;5.85;;;;;;;;;;5095451;28;20373;-63
2022/06/12 06:14:14;;;;;;;18.25;6.18;;;;;;;;;;5079960;28;20553;-63
2022/06/12 06:16:42;;;;;;;16.05;5.88;;;;;;;;;;5090524;28;20502;-63
2022/06/12 06:19:11;;;;;;;13.45;5.78;;;17.80;99.90;;;;;;5084098;28;20080;-63
2022/06/12 06:21:40;;;;;;;13.23;5.57;;;;;;;;;;5087235;28;20093;-64
2022/06/12 06:24:08;;;;;;;15.38;5.97;;;;;;;;;;5083305;28;20036;-62
2022/06/12 06:26:37;;;;;;;16.17;5.20;;;;;;;;;;5082811;28;20038;-64
2022/06/12 06:29:05;;;;;;;14.20;4.90;;;18.30;99.90;;;;;;5081538;28;20097;-64
2022/06/12 06:31:31;;;;;;;11.27;5.22;;;18.00;99.90;;;;;;5085798;28;20403;-64
2022/06/12 06:33:56;;;;;;;12.25;4.97;;;18.10;99.90;;;;;;5085581;28;20147;-61
2022/06/12 06:36:22;;;;;;;12.10;4.55;;;18.10;99.90;;;;;;5085300;28;20451;-63
2022/06/12 06:38:51;;;;;;;13.15;4.45;;;17.90;99.90;;;;;;5084445;28;20102;-61
2022/06/12 06:41:17;;;;;;;17.63;6.93;;;17.80;99.90;;;;;;5084315;28;21874;-65
2022/06/12 06:46:29;;;;;;;12.38;4.45;;;;;;;;;;5080759;28;20502;-62
2022/06/12 06:48:56;;;;;;;17.63;4.97;;;;;;;;;;5085983;28;20070;-64
2022/06/12 06:51:23;;;;;;;14.43;5.30;;;;;;;;;;5089413;28;20048;-64
2022/06/12 06:53:50;;;;;;;14.43;4.97;;;;;;;;;;5083110;28;20050;-65
2022/06/12 06:56:18;;;;;;;13.77;4.78;;;;;;;;;;5091001;28;20720;-64
2022/06/12 06:58:44;;;;;;;8.82;3.95;;;17.90;99.90;;;;;;5074357;28;20032;-65
2022/06/12 07:01:12;;;;;;;14.70;4.45;;;18.40;99.90;;;;;;5075723;28;20024;-64
2022/06/12 07:03:38;;;;;;;13.07;4.07;;;;;;;;;;5086884;28;20016;-64
2022/06/12 07:06:04;;;;;;;13.13;4.22;;;;;;;;;;5086195;28;20088;-63
2022/06/12 07:08:30;;;;;;;13.07;4.30;;;;;;;;;;5088666;28;20506;-64
2022/06/12 07:10:58;;;;;;;10.75;2.80;;;18.30;99.90;;;;;;5089133;28;20016;-63
2022/06/12 07:13:26;;;;;;;10.77;2.97;;;;;;;;;;5087239;28;20077;-63
2022/06/12 07:15:54;;;;;;;12.70;2.83;;;;;;;;;;5087413;28;20015;-63
2022/06/12 07:18:21;;;;;;;8.77;2.78;;;;;;;;;;5089069;28;20024;-64
2022/06/12 07:20:54;;;;;;;11.57;3.00;;;18.50;99.90;;;;;;5087446;28;20042;-62
2022/06/12 07:23:22;;;;;;;10.57;2.85;;;;;;;;;;5086553;28;20028;-65
2022/06/12 07:25:53;;;;;;;12.65;2.40;;;;;;;;;;5083728;28;20020;-63
2022/06/12 07:28:22;;;;;;;11.07;2.38;;;;;;;;;;5088800;28;20043;-65
2022/06/12 07:30:51;;;;;;;8.68;2.38;;;18.50;99.90;;;;;;5086020;28;20060;-61
2022/06/12 07:33:20;;;;;;;7.50;2.38;;;;;;;;;;5084799;28;20039;-64
2022/06/12 07:35:47;;;;;;;7.80;1.83;;;;;;;;;;5080144;28;20927;-64
2022/06/12 07:38:17;;;;;;;8.40;2.17;;;;;;;;;;5088074;28;20056;-65
2022/06/12 07:40:46;;;;;;;7.85;2.10;;;;;;;;;;5083281;28;20051;-65
2022/06/12 07:43:14;;;;;;;10.57;2.50;;;18.40;99.90;;;;;;5085220;28;20486;-64
2022/06/12 07:45:42;;;;;;;7.43;2.03;;;18.70;99.90;;;;;;5087497;28;20038;-63
2022/06/12 07:48:11;;;;;;;7.90;2.25;;;;;;;;;;5084432;28;20042;-64
2022/06/12 07:50:41;;;;;;;11.65;2.30;;;;;;;;;;5095685;28;20084;-61
2022/06/12 07:53:10;;;;;;;9.52;2.80;;;;;;;;;;5098037;28;20043;-61
2022/06/12 07:55:38;;;;;;;10.05;2.33;;;;;;;;;;5087835;28;20071;-65
2022/06/12 07:58:06;;;;;;;9.43;2.28;;;;;;;;;;5095782;28;20589;-65
2022/06/12 08:00:35;;;;;;;6.53;2.40;;;;;;;;;;5092940;28;20675;-62
2022/06/12 08:03:04;;;;;;;9.43;2.47;;;;;;;;;;5091506;28;20076;-65
2022/06/12 08:05:32;;;;;;;10.65;2.45;;;;;;;;;;5087069;28;20019;-62
2022/06/12 08:07:58;;;;;;;7.93;2.10;;;19.00;99.90;;;;;;5098492;28;20398;-65
2022/06/12 08:10:26;;;;;;;7.90;2.75;;;;;;;;;;5093956;28;20205;-65
2022/06/12 08:12:58;;;;;;;7.60;2.15;;;;;;;;;;5089581;28;20028;-65
2022/06/12 08:15:27;;;;;;;9.98;2.25;;;;;;;;;;5092479;28;20067;-65
2022/06/12 08:17:56;;;;;;;8.25;2.08;;;;;;;;;;5092804;28;20020;-62
2022/06/12 08:20:25;;;;;;;8.98;1.90;;;19.40;99.90;;;;;;5092953;28;20024;-65
2022/06/12 08:22:53;;;;;;;7.40;2.20;;;20.10;99.90;;;;;;5086892;28;20078;-64
2022/06/12 08:25:20;;;;;;;11.63;2.78;;;20.10;99.90;;;;;;5089045;28;20027;-64
2022/06/12 08:27:46;;;;;;;9.30;2.33;;;;;;;;;;5094937;28;20538;-65
2022/06/12 08:30:15;;;;;;;6.25;1.95;;;;;;;;;;5091977;28;20505;-65
2022/06/12 08:32:42;;;;;;;9.70;2.00;;;20.10;99.90;;;;;;5095872;28;20031;-63
2022/06/12 08:35:22;;;;;;;9.68;2.45;;;;;;;;;;5089862;28;20032;-64
2022/06/12 08:37:48;;;;;;;10.80;2.30;;;20.40;99.90;;;;;;5089821;28;20019;-65
2022/06/12 08:40:44;;;;;;;8.55;2.05;;;20.60;99.90;;;;;;5098810;28;20182;-65
2022/06/12 08:43:29;;;;;;;9.35;2.42;;;20.40;99.90;;;;;;5090920;28;20017;-64
2022/06/12 08:45:58;;;;;;;5.72;1.92;;;20.40;99.90;;;;;;5084951;28;20024;-65
2022/06/12 08:48:35;;;;;;;8.23;2.35;;;20.30;99.90;;;;;;5085740;28;20035;-65
2022/06/12 08:51:09;;;;;;;8.30;2.30;;;20.30;99.90;;;;;;5095198;28;20020;-65
2022/06/12 08:53:51;;;;;;;7.45;2.20;;;;;;;;;;5096463;28;20379;-65
2022/06/12 08:56:40;;;;;;;5.38;1.92;;;20.30;99.90;;;;;;5093174;28;20019;-65
2022/06/12 08:59:19;;;;;;;9.32;2.30;;;;;;;;;;5089815;28;20027;-64
2022/06/12 09:01:44;;;;;;;9.30;2.08;;;20.90;99.90;;;;;;5101088;27;20161;-64
2022/06/12 09:04:17;;;;;;;8.35;2.17;;;20.90;99.90;;;;;;5095587;27;20478;-65
2022/06/12 09:07:02;;;;;;;11.38;2.22;;;20.90;99.90;;;;;;5089881;28;20016;-65
2022/06/12 09:09:40;;;;;;;8.32;2.20;;;20.70;99.90;;;;;;5092436;28;20024;-64
2022/06/12 09:12:17;;;;;;;11.52;2.60;;;20.80;99.90;;;;;;5095800;28;20031;-63
2022/06/12 09:15:08;;;;;;;9.65;2.45;;;21.00;99.90;;;;;;5086914;28;20110;-65
2022/06/12 09:17:56;;;;;;;8.40;2.28;;;21.10;99.90;;;;;;5088424;28;20399;-62
2022/06/12 09:20:46;;;;;;;8.38;2.38;;;;;;;;;;5090061;28;20015;-64
2022/06/12 09:23:13;;;;;;;8.10;2.20;;;;;;;;;;5081297;28;20093;-65
2022/06/12 09:25:46;;;;;;;8.93;2.20;;;;;;;;;;5091688;28;20022;-64
2022/06/12 09:28:13;;;;;;;10.20;2.50;;;;;;;;;;5089384;28;20140;-62
2022/06/12 09:31:12;;;;;;;10.90;2.38;;;;;;;;;;5085173;28;20055;-64
2022/06/12 09:34:16;;;;;;;10.55;2.40;;;21.30;99.90;;;;;;5063673;28;20071;-62
2022/06/12 09:36:44;;;;;;;;;;;21.30;99.90;;;;;;5094700;28;20015;-64
2022/06/12 09:39:29;;;;;;;11.85;2.90;;;;;;;;;;5085326;28;20462;-65
2022/06/12 09:42:07;;;;;;;11.30;2.80;;;21.30;99.90;;;;;;5092533;28;20073;-64
2022/06/12 09:44:51;;;;;;;13.57;2.90;;;21.30;99.90;;;;;;5093642;28;20022;-65
2022/06/12 09:47:38;;;;;;;15.40;3.13;;;21.10;99.90;;;;;;5092877;28;20028;-64
2022/06/12 09:50:34;;;;;;;12.68;3.30;;;21.20;99.90;;;;;;5090923;28;20072;-65
2022/06/12 09:53:28;;;;;;;18.73;3.47;;;21.80;99.90;;;;;;5090555;28;20058;-62
2022/06/12 09:56:13;;;;;;;12.48;3.33;;;;;;;;;;5084992;28;20099;-62
2022/06/12 09:58:57;;;;;;;13.60;2.70;;;21.40;99.90;;;;;;5093884;27;20376;-65
2022/06/12 10:01:27;;;;;;;15.38;3.20;;;;;;;;;;5088736;28;20378;-66
2022/06/12 10:03:54;;;;;;;12.38;3.38;;;;;;;;;;5087561;28;20016;-62
2022/06/12 10:06:23;;;;;;;15.85;3.58;;;;;;;;;;5088747;28;20077;-64
2022/06/12 10:08:57;;;;;;;15.18;2.70;;;;;;;;;;5091499;28;20020;-64
2022/06/12 10:11:28;;;;;;;12.23;3.15;;;21.60;99.90;;;;;;5088847;28;20101;-64
2022/06/12 10:14:07;;;;;;;12.23;3.15;;;22.10;99.90;;;;;;5087529;28;20035;-65
2022/06/12 10:16:44;;;;;;;12.88;3.03;;;22.00;99.90;;;;;;5088602;28;20519;-65
2022/06/12 10:19:19;;;;;;;10.55;2.53;;;22.20;99.90;;;;;;5086006;28;20027;-62
2022/06/12 10:21:52;;;;;;;12.10;3.05;;;22.30;99.90;;;;;;5091164;28;20027;-64
2022/06/12 10:24:18;;;;;;;17.13;3.38;;;21.80;99.90;;;;;;5088830;28;20035;-65
2022/06/12 10:26:55;;;;;;;12.52;2.88;;;22.20;99.90;;;;;;5091191;28;20073;-65
2022/06/12 10:29:24;;;;;;;10.77;2.63;;;22.50;99.90;;;;;;5089367;28;20024;-65
2022/06/12 10:32:03;;;;;;;10.98;2.60;;;;;;;;;;5088383;28;20032;-66
2022/06/12 10:34:31;;;;;;;12.52;2.83;;;;;;;;;;5085997;28;20480;-65
2022/06/12 10:37:10;;;;;;;9.13;2.65;;;22.60;99.90;;;;;;5086644;28;20056;-65
2022/06/12 10:39:36;;;;;;;12.75;2.72;;;22.70;99.90;;;;;;5089180;28;20098;-65
2022/06/12 10:42:06;;;;;;;14.45;3.30;;;22.90;99.90;;;;;;5092742;28;20024;-65
2022/06/12 10:44:54;;;;;;;12.65;3.53;;;23.20;99.90;;;;;;5096407;28;20019;-65
2022/06/12 10:47:24;;;;;;;11.68;2.80;;;22.30;99.90;;;;;;5091763;28;20042;-65
2022/06/12 10:50:20;;;;;;;15.07;3.53;;;22.30;99.90;;;;;;5090427;28;20038;-62
2022/06/12 10:53:14;;;;;;;14.40;2.88;;;22.40;99.90;;;;;;5088651;28;20035;-65
2022/06/12 10:55:55;;;;;;;;;;;22.40;99.90;;;;;;5090525;28;20050;-64
2022/06/12 10:58:32;;;;;;;13.25;3.00;;;22.90;99.90;;;;;;5093300;28;19969;-65
2022/06/12 11:01:08;;;;;;;17.95;3.47;;;23.00;99.90;;;;;;5083741;28;20034;-65
2022/06/12 11:03:53;;;;;;;11.82;2.80;;;22.80;99.90;;;;;;5081211;28;20024;-66
2022/06/12 11:06:23;;;;;;;13.55;3.15;;;22.70;99.90;;;;;;5084328;28;20019;-64
2022/06/12 11:09:09;;;;;;;13.40;3.15;;;22.90;99.90;;;;;;5084630;28;20035;-64
2022/06/12 11:12:03;;;;;;;10.35;2.58;;;23.00;99.90;;;;;;5087949;28;20024;-65
2022/06/12 11:14:47;;;;;;;16.35;3.22;;;22.80;99.90;;;;;;5084347;28;20188;-62
2022/06/12 11:17:39;;;;;;;;;;;22.60;99.90;;;;;;5085311;28;20027;-66
2022/06/12 11:20:26;;;;;;;13.05;2.92;;;22.50;99.90;;;;;;5084402;28;19912;-66
2022/06/12 11:23:25;;;;;;;12.45;2.58;;;22.50;99.90;;;;;;5089670;28;20059;-66
2022/06/12 11:25:56;;;;;;;9.63;2.60;;;22.80;99.90;;;;;;5088869;28;20562;-65
2022/06/12 11:28:45;;;;;;;15.15;3.35;;;22.60;99.90;;;;;;5091873;28;20154;-66
2022/06/12 11:31:10;;;;;;;13.30;2.67;;;22.10;99.90;;;;;;5092945;28;20111;-65
2022/06/12 11:33:59;;;;;;;11.90;2.58;;;22.00;99.90;;;;;;5089166;28;20126;-65
2022/06/12 11:36:44;;;;;;;14.45;2.85;;;22.30;99.90;;;;;;5087458;28;20067;-65
2022/06/12 11:39:17;;;;;;;12.13;2.83;;;22.20;99.90;;;;;;5095715;28;20020;-65
2022/06/12 11:41:48;;;;;;;;;;;22.20;99.90;;;;;;5091411;28;20028;-65
2022/06/12 11:44:32;;;;;;;12.15;2.65;;;22.40;99.90;;;;;;5092792;28;19958;-66
2022/06/12 11:47:16;;;;;;;14.20;2.95;;;22.40;99.90;;;;;;5093201;28;20063;-65
2022/06/12 11:49:48;;;;;;;11.23;2.60;;;22.50;99.90;;;;;;5089161;28;20051;-63
2022/06/12 11:52:37;;;;;;;10.32;2.60;;;22.40;99.90;;;;;;5097751;28;20012;-65
2022/06/12 11:55:28;;;;;;;9.68;2.45;;;22.60;99.90;;;;;;5087390;28;20475;-66
2022/06/12 11:58:26;;;;;;;10.38;2.83;;;22.40;99.90;;;;;;5091977;28;20486;-65
2022/06/12 12:01:14;;;;;;;10.32;2.55;;;22.30;99.90;;;;;;5057954;28;20048;-64
2022/06/12 12:04:04;;;;;;;7.70;2.60;;;22.30;99.90;;;;;;5088174;28;20539;-65
2022/06/12 12:06:54;;;;;;;9.68;2.50;;;22.00;99.90;;;;;;5090207;28;20584;-65
2022/06/12 12:09:48;;;;;;;13.25;2.83;;;22.30;99.90;;;;;;5090478;28;20020;-65
2022/06/12 12:12:26;;;;;;;8.68;2.03;;;22.30;99.90;;;;;;5090703;28;20107;-64
2022/06/12 12:14:53;;;;;;;14.35;2.70;;;22.20;99.90;;;;;;5089110;28;20028;-66
2022/06/12 12:17:25;;;;;;;9.63;2.80;;;22.30;99.90;;;;;;5089475;28;20433;-64
2022/06/12 12:19:59;;;;;;;12.68;2.38;;;22.40;99.90;;;;;;5093827;28;20012;-63
2022/06/12 12:22:40;;;;;;;9.18;2.67;;;21.30;99.90;;;;;;5097573;27;20027;-62
2022/06/12 12:25:24;;;;;;;8.93;2.60;;;22.20;99.90;;;;;;5086899;28;20683;-63
2022/06/12 12:27:53;;;;;;;6.38;2.33;;;22.20;99.90;;;;;;5086922;28;20083;-66
2022/06/12 12:30:23;;;;;;;7.45;2.45;;;22.40;99.90;;;;;;5103008;27;20032;-66
2022/06/12 12:32:52;;;;;;;13.00;2.47;;;22.80;99.90;;;;;;5090736;28;20024;-64
2022/06/12 12:43:34;;;;;;;11.30;2.67;;;22.80;99.90;;;;;;5092269;28;20027;-66
2022/06/12 12:46:06;;;;;;;12.40;2.40;;;22.60;99.90;;;;;;5089706;28;20036;-63
2022/06/12 12:48:47;;;;;;;10.77;2.85;;;22.80;99.90;;;;;;5082970;28;20025;-66
2022/06/12 12:51:36;;;;;;;9.57;2.60;;;22.90;99.90;;;;;;5080660;28;20367;-64
2022/06/12 12:54:20;;;;;;;9.27;2.63;;;23.00;99.90;;;;;;5080950;28;20060;-66
2022/06/12 12:57:01;;;;;;;10.13;2.38;;;23.10;99.90;;;;;;5081683;28;20039;-66
2022/06/12 12:59:56;;;;;;;8.30;1.95;;;23.20;99.90;;;;;;5084444;28;20028;-65
2022/06/12 13:02:28;;;;;;;9.05;2.10;;;23.20;99.90;;;;;;5071500;28;20044;-66
2022/06/12 13:05:00;;;;;;;9.40;2.58;;;23.20;99.90;;;;;;5085983;28;20016;-62
2022/06/12 13:07:45;;;;;;;10.05;2.30;;;23.10;99.90;;;;;;5093907;28;20426;-66
2022/06/12 13:10:47;;;;;;;6.85;1.98;;;23.00;99.90;;;;;;5083550;28;20522;-65
2022/06/12 13:13:13;;;;;;;7.05;2.38;;;23.10;99.90;;;;;;5089132;28;20491;-66
2022/06/12 13:15:48;;;;;;;6.68;2.00;;;23.20;99.90;;;;;;5094403;28;20095;-66
2022/06/12 13:18:35;;;;;;;7.90;2.10;;;23.30;99.90;;;;;;5087519;28;20506;-65
2022/06/12 13:21:45;;;;;;;7.60;2.28;;;23.30;99.90;;;;;;5090279;28;20106;-65
2022/06/12 13:24:40;;;;;;;7.88;2.03;;;23.40;99.90;;;;;;5065613;28;20572;-66
2022/06/12 13:27:27;;;;;;;8.32;2.35;;;23.20;99.90;;;;;;5088032;28;20032;-66
2022/06/12 13:29:54;;;;;;;7.95;2.00;;;23.20;99.90;;;;;;5090261;28;20110;-64
2022/06/12 13:32:35;;;;;;;7.05;2.05;;;23.30;99.90;;;;;;5094170;28;20031;-66
2022/06/12 13:35:03;;;;;;;7.63;2.53;;;23.40;99.90;;;;;;5089553;28;20023;-65
2022/06/12 13:37:32;;;;;;;8.48;2.33;;;23.60;99.90;;;;;;5086124;28;20490;-65
2022/06/12 13:40:00;;;;;;;8.43;1.95;;;23.90;99.90;;;;;;5085290;28;20040;-66
2022/06/12 13:42:29;;;;;;;5.60;1.98;;;23.20;99.90;;;;;;5094393;28;20456;-65
2022/06/12 13:44:56;;;;;;;7.65;1.98;;;23.10;99.90;;;;;;5088924;28;20013;-65
2022/06/12 13:47:35;;;;;;;7.35;2.00;;;23.40;99.90;;;;;;5085940;28;20031;-65
2022/06/12 13:50:22;;;;;;;6.03;1.75;;;23.20;99.90;;;;;;5095511;27;20565;-66
2022/06/12 13:52:59;;;;;;;5.70;1.70;;;23.70;99.90;;;;;;5084065;28;20028;-64
2022/06/12 13:55:33;;;;;;;4.32;1.63;;;23.30;99.90;;;;;;5087201;28;20892;-64
2022/06/12 13:58:21;;;;;;;9.45;1.92;;;23.00;99.90;;;;;;5090700;28;20093;-66
2022/06/12 14:01:01;;;;;;;8.18;2.40;;;23.20;99.90;;;;;;5085829;28;20479;-66
2022/06/12 14:03:36;;;;;;;5.55;1.75;;;23.30;99.90;;;;;;5091582;28;20032;-65
2022/06/12 14:06:08;;;;;;;7.05;1.90;;;22.50;99.90;;;;;;5089333;28;20023;-65
2022/06/12 14:08:37;;;;;;;5.75;1.92;;;23.50;99.90;;;;;;5091149;28;20016;-65
2022/06/12 14:11:03;;;;;;;6.45;2.05;;;23.50;99.90;;;;;;5083853;28;20111;-63
2022/06/12 14:13:42;;;;;;;6.13;1.73;;;23.60;99.90;;;;;;5084417;28;20039;-65
2022/06/12 14:16:11;;;;;;;7.82;2.17;;;23.40;99.90;;;;;;5084672;28;20496;-64